createdAt,value
2018-03-28T00:00:11.452Z,99596.59
2018-03-28T00:01:49.006Z,99611.56
2018-03-28T00:03:27.530Z,99709.72
2018-03-28T00:05:07.856Z,99696.51
2018-03-28T00:06:46.108Z,99810.20
2018-03-28T00:08:23.266Z,99869.66
2018-03-28T00:10:00.850Z,99884.19
2018-03-28T00:11:38.511Z,99703.14
2018-03-28T00:13:16.412Z,99673.26
2018-03-28T00:14:53.930Z,99657.38
2018-03-28T00:16:32.406Z,99660.46
2018-03-28T00:18:10.637Z,99670.16
2018-03-28T00:21:35.669Z,99849.88
2018-03-28T00:23:13.144Z,99849.00
2018-03-28T00:26:37.901Z,99684.25
2018-03-28T00:28:15.573Z,99756.92
2018-03-28T00:29:53.147Z,99625.28
2018-03-28T00:31:32.937Z,99630.56
2018-03-28T00:33:10.583Z,99720.44
2018-03-28T00:34:48.255Z,99831.41
2018-03-28T00:36:27.339Z,99957.50
2018-03-28T00:38:04.803Z,99909.88
2018-03-28T00:39:43.221Z,99991.05
2018-03-28T00:41:20.803Z,99917.84
2018-03-28T00:42:58.722Z,99830.08
2018-03-28T00:44:36.621Z,99942.10
2018-03-28T00:46:14.624Z,100036.02
2018-03-28T00:47:52.371Z,100093.83
2018-03-28T00:49:30.039Z,99967.16
2018-03-28T00:51:20.794Z,99973.83
2018-03-28T00:52:58.401Z,99941.21
2018-03-28T00:54:36.952Z,99918.28
2018-03-28T00:56:15.015Z,99869.77
2018-03-28T00:57:53.376Z,99825.27
2018-03-28T00:59:32.023Z,99802.76
2018-03-28T01:01:10.079Z,99757.39
2018-03-28T01:02:48.375Z,99708.12
2018-03-28T01:04:27.165Z,99757.90
2018-03-28T01:06:04.968Z,99761.37
2018-03-28T01:11:15.017Z,99717.78
2018-03-28T01:12:52.975Z,99755.71
2018-03-28T01:14:30.674Z,99783.41
2018-03-28T01:16:08.488Z,99775.08
2018-03-28T01:17:46.354Z,99791.38
2018-03-28T01:19:24.182Z,99767.11
2018-03-28T01:21:03.192Z,99787.84
2018-03-28T01:22:41.476Z,99808.58
2018-03-28T01:24:19.223Z,99821.33
2018-03-28T01:25:56.916Z,99807.70
2018-03-28T01:27:35.990Z,99735.01
2018-03-28T01:29:13.570Z,99653.08
2018-03-28T01:30:53.955Z,99630.64
2018-03-28T01:32:32.284Z,99607.34
2018-03-28T01:34:10.774Z,99653.55
2018-03-28T01:35:49.124Z,99704.63
2018-03-28T01:37:26.704Z,99674.70
2018-03-28T01:39:04.429Z,99735.94
2018-03-28T01:40:42.394Z,99761.48
2018-03-28T01:42:20.862Z,99697.64
2018-03-28T01:43:58.550Z,99611.32
2018-03-28T01:45:36.638Z,99639.94
2018-03-28T01:47:14.824Z,99653.18
2018-03-28T01:48:52.798Z,99673.78
2018-03-28T01:50:30.562Z,99687.07
2018-03-28T01:52:09.087Z,99653.13
2018-03-28T01:53:47.075Z,99656.21
2018-03-28T01:55:25.740Z,99634.19
2018-03-28T01:57:03.275Z,99620.16
2018-03-28T01:58:41.291Z,99708.66
2018-03-28T02:00:20.987Z,99738.60
2018-03-28T02:01:58.652Z,99725.34
2018-03-28T02:03:36.525Z,99664.14
2018-03-28T02:05:13.984Z,99587.13
2018-03-28T02:06:51.930Z,99562.07
2018-03-28T02:08:29.913Z,99505.31
2018-03-28T02:10:07.773Z,99515.91
2018-03-28T02:11:46.529Z,99474.95
2018-03-28T02:13:24.814Z,99555.55
2018-03-28T02:15:02.787Z,99593.77
2018-03-28T02:16:41.008Z,99619.27
2018-03-28T02:18:18.335Z,99605.70
2018-03-28T02:19:57.715Z,99606.98
2018-03-28T02:21:35.222Z,99650.54
2018-03-28T02:23:13.519Z,99604.80
2018-03-28T02:24:50.730Z,99626.41
2018-03-28T02:26:28.583Z,99659.83
2018-03-28T02:28:07.308Z,99622.84
2018-03-28T02:29:44.836Z,99572.22
2018-03-28T02:31:22.756Z,99598.20
2018-03-28T02:33:00.519Z,99573.98
2018-03-28T02:34:41.168Z,99487.34
2018-03-28T02:36:19.209Z,99425.35
2018-03-28T02:37:56.537Z,99420.55
2018-03-28T02:39:34.421Z,99441.61
2018-03-28T02:41:11.469Z,99437.64
2018-03-28T02:42:49.811Z,99465.34
2018-03-28T02:44:29.316Z,99478.09
2018-03-28T02:46:07.607Z,99464.03
2018-03-28T02:47:45.355Z,99512.84
2018-03-28T02:49:23.316Z,99573.59
2018-03-28T02:51:00.686Z,99635.66
2018-03-28T02:52:38.884Z,99670.36
2018-03-28T02:54:16.578Z,99662.44
2018-03-28T02:55:54.207Z,99625.94
2018-03-28T02:57:32.082Z,99629.05
2018-03-28T02:59:10.355Z,99595.64
2018-03-28T03:00:48.155Z,99541.06
2018-03-28T03:02:26.645Z,99517.30
2018-03-28T03:04:04.313Z,99527.87
2018-03-28T03:05:41.965Z,99582.87
2018-03-28T03:07:19.854Z,99706.12
2018-03-28T03:08:57.266Z,99709.62
2018-03-28T03:10:35.225Z,99726.37
2018-03-28T03:12:12.232Z,99707.41
2018-03-28T03:13:50.934Z,99728.11
2018-03-28T03:15:30.084Z,99731.20
2018-03-28T03:17:07.713Z,99727.69
2018-03-28T03:18:44.806Z,99655.45
2018-03-28T03:20:22.571Z,99658.08
2018-03-28T03:21:59.577Z,99688.98
2018-03-28T03:23:37.104Z,99692.48
2018-03-28T03:25:14.960Z,99658.14
2018-03-28T03:26:52.549Z,99657.68
2018-03-28T03:28:31.146Z,99717.64
2018-03-28T03:30:09.480Z,99688.55
2018-03-28T03:31:47.563Z,99745.30
2018-03-28T03:33:25.409Z,99755.48
2018-03-28T03:35:03.222Z,99752.83
2018-03-28T03:36:41.993Z,99776.18
2018-03-28T03:38:19.148Z,99805.23
2018-03-28T03:39:56.472Z,99718.94
2018-03-28T03:41:34.349Z,99725.52
2018-03-28T03:43:12.565Z,99805.25
2018-03-28T03:44:49.704Z,99748.02
2018-03-28T03:46:27.371Z,99777.51
2018-03-28T03:48:04.587Z,99762.13
2018-03-28T03:49:44.166Z,99806.16
2018-03-28T03:51:22.015Z,99842.70
2018-03-28T03:52:59.501Z,99770.94
2018-03-28T03:54:36.189Z,99772.27
2018-03-28T03:56:13.585Z,99855.10
2018-03-28T03:57:50.907Z,99755.95
2018-03-28T03:59:27.917Z,99819.01
2018-03-28T04:01:05.327Z,99756.41
2018-03-28T04:02:43.055Z,99803.06
2018-03-28T04:04:20.524Z,99778.03
2018-03-28T04:05:57.747Z,99709.70
2018-03-28T04:07:35.106Z,99728.18
2018-03-28T04:09:12.645Z,99758.17
2018-03-28T04:10:49.706Z,99712.35
2018-03-28T04:12:26.782Z,99673.59
2018-03-28T04:14:04.895Z,99487.92
2018-03-28T04:15:44.505Z,99206.72
2018-03-28T04:17:21.816Z,99251.56
2018-03-28T04:18:59.214Z,99284.44
2018-03-28T04:20:36.762Z,99299.86
2018-03-28T04:22:14.867Z,99363.98
2018-03-28T04:23:52.576Z,99454.08
2018-03-28T04:25:29.663Z,99535.44
2018-03-28T04:27:08.075Z,99520.47
2018-03-28T04:28:45.723Z,99535.45
2018-03-28T04:30:24.337Z,99532.38
2018-03-28T04:32:01.123Z,99465.52
2018-03-28T04:33:38.411Z,99337.61
2018-03-28T04:35:15.820Z,99321.40
2018-03-28T04:36:53.769Z,99352.61
2018-03-28T04:38:32.359Z,99367.52
2018-03-28T04:40:09.633Z,99431.22
2018-03-28T04:41:47.147Z,99284.97
2018-03-28T04:43:24.525Z,99167.72
2018-03-28T04:45:02.250Z,99301.66
2018-03-28T04:46:40.385Z,99394.80
2018-03-28T04:48:17.927Z,99422.45
2018-03-28T04:49:55.394Z,99393.03
2018-03-28T04:51:32.682Z,99378.96
2018-03-28T04:53:09.785Z,99329.78
2018-03-28T04:54:48.623Z,99280.55
2018-03-28T04:56:25.648Z,99268.25
2018-03-28T04:58:02.831Z,99239.72
2018-03-28T04:59:40.016Z,99192.77
2018-03-28T05:01:17.509Z,99208.55
2018-03-28T05:02:55.111Z,99268.75
2018-03-28T05:04:32.428Z,99287.19
2018-03-28T05:06:09.648Z,99276.20
2018-03-28T05:07:47.882Z,99284.55
2018-03-28T05:09:26.720Z,99133.50
2018-03-28T05:11:04.107Z,99089.19
2018-03-28T05:12:42.646Z,99163.80
2018-03-28T05:14:22.483Z,99217.78
2018-03-28T05:16:01.649Z,99251.22
2018-03-28T05:17:39.910Z,99240.22
2018-03-28T05:19:17.232Z,99261.27
2018-03-28T05:20:54.848Z,99226.98
2018-03-28T05:22:33.016Z,99193.22
2018-03-28T05:24:10.908Z,99142.75
2018-03-28T05:25:48.358Z,99225.25
2018-03-28T05:27:26.144Z,99281.06
2018-03-28T05:29:03.313Z,99335.09
2018-03-28T05:30:40.959Z,99377.69
2018-03-28T05:32:18.622Z,99302.50
2018-03-28T05:33:57.613Z,99180.90
2018-03-28T05:35:35.076Z,99230.96
2018-03-28T05:37:13.169Z,99249.89
2018-03-28T05:38:51.252Z,99199.82
2018-03-28T05:40:28.816Z,99222.66
2018-03-28T05:42:07.142Z,99289.86
2018-03-28T05:43:44.977Z,99278.82
2018-03-28T05:45:27.279Z,99395.72
2018-03-28T05:47:05.035Z,99474.41
2018-03-28T05:48:43.255Z,99500.36
2018-03-28T05:50:21.620Z,99415.55
2018-03-28T05:51:59.278Z,99418.18
2018-03-28T05:53:37.776Z,99486.70
2018-03-28T05:55:16.140Z,99545.23
2018-03-28T05:56:54.027Z,99563.28
2018-03-28T05:58:32.521Z,99541.72
2018-03-28T06:00:10.759Z,99449.78
2018-03-28T06:01:48.612Z,99404.95
2018-03-28T06:03:26.229Z,99390.90
2018-03-28T06:05:04.233Z,99306.08
2018-03-28T06:06:42.335Z,99291.20
2018-03-28T06:08:20.126Z,99260.42
2018-03-28T06:11:33.512Z,99292.08
2018-03-28T06:13:11.412Z,99287.20
2018-03-28T06:14:49.692Z,99227.98
2018-03-28T06:16:27.661Z,99207.71
2018-03-28T06:18:05.820Z,99263.09
2018-03-28T06:19:45.095Z,99285.06
2018-03-28T06:21:22.883Z,99214.75
2018-03-28T06:23:00.410Z,99097.61
2018-03-28T06:24:38.193Z,99115.63
2018-03-28T06:26:17.076Z,99147.64
2018-03-28T06:27:55.624Z,99203.41
2018-03-28T06:29:33.440Z,99277.22
2018-03-28T06:31:12.171Z,99330.73
2018-03-28T06:32:50.303Z,99465.25
2018-03-28T06:34:27.876Z,99563.81
2018-03-28T06:37:39.701Z,99565.53
2018-03-28T06:39:18.315Z,99520.24
2018-03-28T06:40:55.858Z,99467.02
2018-03-28T06:42:33.594Z,99477.63
2018-03-28T06:44:11.321Z,99467.04
2018-03-28T06:45:50.296Z,99639.95
2018-03-28T06:47:27.940Z,99696.72
2018-03-28T06:49:06.192Z,99698.92
2018-03-28T06:50:43.965Z,99666.34
2018-03-28T06:52:21.834Z,99583.19
2018-03-28T06:54:00.403Z,99448.59
2018-03-28T06:55:39.043Z,99595.98
2018-03-28T06:57:16.999Z,99624.95
2018-03-28T06:58:55.513Z,99715.70
2018-03-28T07:00:33.226Z,99743.41
2018-03-28T07:02:10.815Z,99647.41
2018-03-28T07:03:49.182Z,99665.52
2018-03-28T07:05:27.523Z,99770.74
2018-03-28T07:07:05.345Z,99883.05
2018-03-28T07:08:43.531Z,99912.63
2018-03-28T07:10:20.899Z,100011.42
2018-03-28T07:11:59.058Z,100024.25
2018-03-28T07:13:36.371Z,100075.86
2018-03-28T07:15:15.273Z,100105.37
2018-03-28T07:16:53.650Z,100156.20
2018-03-28T07:18:31.125Z,100187.98
2018-03-28T07:20:08.704Z,100149.56
2018-03-28T07:21:46.248Z,100068.70
2018-03-28T07:23:24.326Z,99878.72
2018-03-28T07:25:01.850Z,99819.66
2018-03-28T07:26:39.582Z,99854.95
2018-03-28T07:28:17.610Z,99826.28
2018-03-28T07:29:55.312Z,99940.44
2018-03-28T07:31:33.192Z,100027.77
2018-03-28T07:33:10.557Z,99835.98
2018-03-28T07:34:47.975Z,99921.50
2018-03-28T07:36:25.900Z,100008.41
2018-03-28T07:38:03.939Z,100078.96
2018-03-28T07:39:42.100Z,100063.07
2018-03-28T07:41:19.385Z,100158.44
2018-03-28T07:42:57.118Z,100188.91
2018-03-28T07:44:34.580Z,100093.54
2018-03-28T07:46:12.162Z,100126.23
2018-03-28T07:47:49.586Z,100034.02
2018-03-28T07:49:28.472Z,99999.54
2018-03-28T07:51:06.517Z,100102.40
2018-03-28T07:52:44.156Z,100296.27
2018-03-28T07:54:21.250Z,100382.88
2018-03-28T07:55:59.501Z,100372.69
2018-03-28T07:57:36.950Z,100406.75
2018-03-28T07:59:14.393Z,100291.86
2018-03-28T08:00:52.456Z,100362.56
2018-03-28T08:02:29.965Z,100397.94
2018-03-28T08:04:07.011Z,100410.77
2018-03-28T08:05:44.282Z,100468.72
2018-03-28T08:07:21.800Z,100368.78
2018-03-28T08:08:59.373Z,100455.88
2018-03-28T08:10:36.909Z,100557.17
2018-03-28T08:12:13.888Z,100596.59
2018-03-28T08:13:51.364Z,100608.52
2018-03-28T08:15:29.847Z,100560.72
2018-03-28T08:17:07.067Z,100546.15
2018-03-28T08:18:44.101Z,100517.83
2018-03-28T08:20:22.377Z,100273.31
2018-03-28T08:21:59.579Z,100138.19
2018-03-28T08:23:37.526Z,99947.17
2018-03-28T08:25:14.443Z,99978.91
2018-03-28T08:26:52.015Z,100161.55
2018-03-28T08:28:29.368Z,100313.55
2018-03-28T08:30:07.765Z,100297.18
2018-03-28T08:31:45.489Z,100253.46
2018-03-28T08:33:23.714Z,100300.30
2018-03-28T08:35:01.356Z,100317.51
2018-03-28T08:36:39.078Z,100342.29
2018-03-28T08:38:17.075Z,100293.23
2018-03-28T08:39:54.673Z,100304.76
2018-03-28T08:41:32.733Z,100307.84
2018-03-28T08:43:10.028Z,100296.31
2018-03-28T08:44:47.888Z,100261.46
2018-03-28T08:46:25.747Z,100290.21
2018-03-28T08:48:04.062Z,100295.91
2018-03-28T08:49:41.373Z,100298.11
2018-03-28T08:51:18.455Z,100453.73
2018-03-28T08:52:56.460Z,100458.61
2018-03-28T08:54:33.604Z,100439.11
2018-03-28T08:56:10.932Z,100443.98
2018-03-28T08:57:47.937Z,100529.80
2018-03-28T08:59:25.506Z,100399.77
2018-03-28T09:01:02.952Z,100403.75
2018-03-28T09:02:40.105Z,100319.77
2018-03-28T09:04:17.414Z,100337.47
2018-03-28T09:05:55.887Z,100298.13
2018-03-28T09:07:33.114Z,100372.37
2018-03-28T09:09:10.738Z,100358.25
2018-03-28T09:10:47.798Z,100232.34
2018-03-28T09:12:25.583Z,100267.25
2018-03-28T09:14:02.804Z,100457.31
2018-03-28T09:15:41.058Z,100592.22
2018-03-28T09:17:18.143Z,100629.35
2018-03-28T09:18:56.095Z,100662.61
2018-03-28T09:20:33.150Z,100669.72
2018-03-28T09:22:10.526Z,100701.61
2018-03-28T09:23:47.919Z,100699.39
2018-03-28T09:25:26.073Z,100649.32
2018-03-28T09:27:04.021Z,100614.33
2018-03-28T09:28:41.188Z,100685.26
2018-03-28T09:30:21.191Z,100711.33
2018-03-28T09:31:59.027Z,100616.13
2018-03-28T09:33:36.267Z,100674.18
2018-03-28T09:35:13.558Z,100653.75
2018-03-28T09:36:50.629Z,100652.44
2018-03-28T09:38:28.090Z,100688.77
2018-03-28T09:40:06.226Z,100686.10
2018-03-28T09:41:43.912Z,100627.20
2018-03-28T09:43:21.248Z,100488.28
2018-03-28T09:44:59.672Z,100524.07
2018-03-28T09:46:36.912Z,100474.09
2018-03-28T09:48:14.074Z,100401.58
2018-03-28T09:49:51.200Z,100502.41
2018-03-28T09:51:28.783Z,100374.16
2018-03-28T09:53:05.867Z,100378.59
2018-03-28T09:54:48.212Z,100387.87
2018-03-28T09:56:25.557Z,100455.98
2018-03-28T09:58:03.402Z,100451.08
2018-03-28T09:59:41.707Z,100439.17
2018-03-28T10:01:23.800Z,100459.07
2018-03-28T10:03:05.413Z,100599.33
2018-03-28T10:04:50.301Z,100675.92
2018-03-28T10:08:12.813Z,100485.18
2018-03-28T10:09:50.007Z,100517.44
2018-03-28T10:11:28.546Z,100526.29
2018-03-28T10:13:07.768Z,100417.97
2018-03-28T10:14:45.124Z,100312.30
2018-03-28T10:16:22.481Z,100388.79
2018-03-28T10:18:00.809Z,100477.67
2018-03-28T10:19:38.087Z,100340.61
2018-03-28T10:21:16.076Z,100124.58
2018-03-28T10:22:54.442Z,100226.22
2018-03-28T10:24:32.006Z,100350.72
2018-03-28T10:26:09.264Z,100347.67
2018-03-28T10:27:46.366Z,100367.50
2018-03-28T10:29:23.977Z,100461.31
2018-03-28T10:31:01.879Z,100528.51
2018-03-28T10:34:27.208Z,100646.23
2018-03-28T10:36:04.799Z,100518.32
2018-03-28T10:37:43.170Z,100552.86
2018-03-28T10:39:21.116Z,100507.28
2018-03-28T10:40:58.130Z,100527.63
2018-03-28T10:42:35.210Z,100413.98
2018-03-28T10:44:12.900Z,100442.73
2018-03-28T10:45:50.782Z,100311.85
2018-03-28T10:47:29.674Z,100301.68
2018-03-28T10:50:56.554Z,100415.30
2018-03-28T10:52:33.583Z,100372.84
2018-03-28T10:54:10.623Z,100385.68
2018-03-28T10:55:47.770Z,100266.36
2018-03-28T10:57:25.231Z,100327.30
2018-03-28T10:59:02.447Z,100407.33
2018-03-28T11:00:39.805Z,100448.00
2018-03-28T11:02:16.936Z,100416.18
2018-03-28T11:03:53.860Z,100506.39
2018-03-28T11:05:31.099Z,100510.83
2018-03-28T11:07:08.236Z,100554.64
2018-03-28T11:08:46.161Z,100632.53
2018-03-28T11:10:24.590Z,100625.43
2018-03-28T11:12:01.593Z,100571.89
2018-03-28T11:13:38.603Z,100636.09
2018-03-28T11:15:17.986Z,100671.51
2018-03-28T11:16:55.586Z,100670.61
2018-03-28T11:18:32.866Z,100627.66
2018-03-28T11:20:09.981Z,100648.01
2018-03-28T11:21:47.676Z,100631.62
2018-03-28T11:23:25.938Z,100603.77
2018-03-28T11:25:04.084Z,100603.30
2018-03-28T11:26:41.317Z,100576.75
2018-03-28T11:28:18.518Z,100602.42
2018-03-28T11:29:55.556Z,100573.64
2018-03-28T11:31:32.646Z,100541.81
2018-03-28T11:33:09.755Z,100524.53
2018-03-28T11:34:48.855Z,100536.05
2018-03-28T11:36:26.039Z,100469.22
2018-03-28T11:38:03.276Z,100426.34
2018-03-28T11:39:41.208Z,100445.41
2018-03-28T11:41:18.661Z,100458.20
2018-03-28T11:42:56.662Z,100455.99
2018-03-28T11:44:35.887Z,100492.27
2018-03-28T11:46:13.597Z,100533.84
2018-03-28T11:47:51.590Z,100544.00
2018-03-28T11:49:30.620Z,100506.84
2018-03-28T11:51:08.117Z,100330.41
2018-03-28T11:52:45.138Z,100337.06
2018-03-28T11:54:21.966Z,100360.47
2018-03-28T11:55:59.200Z,100388.80
2018-03-28T11:57:36.451Z,100357.40
2018-03-28T11:59:13.386Z,100375.48
2018-03-28T12:00:51.045Z,100419.74
2018-03-28T12:02:28.633Z,100473.22
2018-03-28T12:04:05.935Z,100458.63
2018-03-28T12:05:43.034Z,100511.25
2018-03-28T12:07:21.940Z,100558.16
2018-03-28T12:08:59.537Z,100543.15
2018-03-28T12:10:36.714Z,100524.54
2018-03-28T12:12:13.911Z,100591.39
2018-03-28T12:13:51.666Z,100679.94
2018-03-28T12:15:30.687Z,100729.55
2018-03-28T12:17:07.884Z,100757.39
2018-03-28T12:18:45.107Z,100816.34
2018-03-28T12:20:22.602Z,100776.49
2018-03-28T12:22:00.487Z,100858.00
2018-03-28T12:25:23.256Z,100956.44
2018-03-28T12:27:01.133Z,100962.20
2018-03-28T12:28:39.976Z,100861.13
2018-03-28T12:30:19.081Z,100896.17
2018-03-28T12:31:56.918Z,100938.27
2018-03-28T12:33:35.036Z,100881.95
2018-03-28T12:35:14.636Z,100830.95
2018-03-28T12:36:52.504Z,100801.31
2018-03-28T12:38:29.782Z,100740.59
2018-03-28T12:40:08.510Z,100587.39
2018-03-28T12:41:46.535Z,100484.31
2018-03-28T12:43:24.103Z,100432.55
2018-03-28T12:45:01.561Z,100535.63
2018-03-28T12:46:40.294Z,100575.41
2018-03-28T12:48:17.527Z,100509.52
2018-03-28T12:49:55.403Z,100534.71
2018-03-28T12:51:33.265Z,100528.08
2018-03-28T12:53:11.152Z,100497.11
2018-03-28T12:54:48.198Z,100559.51
2018-03-28T12:56:25.463Z,100598.45
2018-03-28T12:58:02.475Z,100457.75
2018-03-28T12:59:39.650Z,100529.41
2018-03-28T13:01:16.922Z,100486.52
2018-03-28T13:02:53.824Z,100379.02
2018-03-28T13:04:30.911Z,100279.16
2018-03-28T13:06:08.376Z,100123.69
2018-03-28T13:07:46.033Z,100003.22
2018-03-28T13:09:23.047Z,99934.88
2018-03-28T13:11:02.161Z,99885.05
2018-03-28T13:12:39.994Z,99878.47
2018-03-28T13:14:19.671Z,99866.52
2018-03-28T13:15:59.741Z,99825.09
2018-03-28T13:17:36.910Z,99770.97
2018-03-28T13:19:14.661Z,99764.77
2018-03-28T13:20:51.745Z,99770.91
2018-03-28T13:22:28.591Z,99770.91
2018-03-28T13:24:05.774Z,99771.34
2018-03-28T13:25:43.286Z,99783.27
2018-03-28T13:27:21.107Z,99834.38
2018-03-28T13:28:58.280Z,99790.33
2018-03-28T13:30:35.289Z,99723.77
2018-03-28T13:32:13.589Z,99615.94
2018-03-28T13:33:51.571Z,99655.12
2018-03-28T13:35:29.571Z,99687.69
2018-03-28T13:37:07.249Z,99740.55
2018-03-28T13:38:45.671Z,99733.91
2018-03-28T13:40:22.858Z,99744.48
2018-03-28T13:42:00.002Z,99741.82
2018-03-28T13:43:37.562Z,99708.36
2018-03-28T13:45:17.657Z,99564.00
2018-03-28T13:46:55.045Z,99510.35
2018-03-28T13:48:32.963Z,99490.13
2018-03-28T13:50:13.428Z,99509.52
2018-03-28T13:51:51.255Z,99486.16
2018-03-28T13:53:29.265Z,99352.56
2018-03-28T13:55:06.599Z,99252.92
2018-03-28T13:56:43.707Z,99313.95
2018-03-28T13:58:21.962Z,99277.91
2018-03-28T13:59:59.161Z,99331.48
2018-03-28T14:01:36.758Z,99222.16
2018-03-28T14:03:15.089Z,99154.95
2018-03-28T14:04:55.702Z,99089.16
2018-03-28T14:06:32.957Z,99069.42
2018-03-28T14:08:10.919Z,99092.25
2018-03-28T14:09:48.057Z,99083.42
2018-03-28T14:11:26.806Z,99067.66
2018-03-28T14:13:03.730Z,99249.77
2018-03-28T14:14:41.359Z,99388.53
2018-03-28T14:16:19.170Z,99497.59
2018-03-28T14:17:56.136Z,99519.58
2018-03-28T14:19:34.100Z,99596.59
2018-03-28T14:21:10.975Z,99748.44
2018-03-28T14:22:48.580Z,99575.84
2018-03-28T14:24:26.269Z,99676.19
2018-03-28T14:26:04.135Z,99574.95
2018-03-28T14:27:41.122Z,99471.17
2018-03-28T14:29:19.431Z,99467.69
2018-03-28T14:30:57.363Z,99416.23
2018-03-28T14:32:34.477Z,99371.41
2018-03-28T14:34:11.517Z,99231.34
2018-03-28T14:35:48.922Z,99020.73
2018-03-28T14:37:26.850Z,98925.55
2018-03-28T14:39:05.094Z,98838.39
2018-03-28T14:40:46.225Z,98763.92
2018-03-28T14:42:25.022Z,98696.53
2018-03-28T14:44:06.562Z,98662.83
2018-03-28T14:45:45.275Z,98616.43
2018-03-28T14:47:23.856Z,98574.02
2018-03-28T14:49:02.280Z,98578.42
2018-03-28T14:50:39.239Z,98586.30
2018-03-28T14:52:16.740Z,98577.48
2018-03-28T14:53:54.169Z,98572.27
2018-03-28T14:55:33.041Z,98568.34
2018-03-28T14:57:13.068Z,98582.34
2018-03-28T14:58:50.602Z,98551.70
2018-03-28T15:00:29.503Z,98549.97
2018-03-28T15:02:09.832Z,98532.95
2018-03-28T15:03:47.033Z,98500.14
2018-03-28T15:05:24.211Z,98509.74
2018-03-28T15:07:01.893Z,98559.17
2018-03-28T15:08:40.461Z,98738.06
2018-03-28T15:10:24.252Z,98925.98
2018-03-28T15:12:02.006Z,99010.60
2018-03-28T15:13:39.003Z,99208.45
2018-03-28T15:15:18.200Z,99355.17
2018-03-28T15:16:56.541Z,99463.69
2018-03-28T15:18:35.432Z,99466.77
2018-03-28T15:20:12.679Z,99141.77
2018-03-28T15:21:49.683Z,98959.25
2018-03-28T15:23:27.412Z,98918.55
2018-03-28T15:25:05.307Z,98980.37
2018-03-28T15:26:42.524Z,98884.79
2018-03-28T15:28:19.447Z,98903.21
2018-03-28T15:30:00.287Z,98902.75
2018-03-28T15:31:37.727Z,98905.41
2018-03-28T15:33:14.849Z,98847.09
2018-03-28T15:34:51.824Z,98836.16
2018-03-28T15:36:29.588Z,98731.53
2018-03-28T15:38:06.819Z,98708.31
2018-03-28T15:39:43.845Z,98812.97
2018-03-28T15:41:20.838Z,98980.80
2018-03-28T15:42:58.343Z,99025.50
2018-03-28T15:44:35.361Z,99051.00
2018-03-28T15:46:12.805Z,99088.69
2018-03-28T15:47:49.715Z,99067.20
2018-03-28T15:49:28.172Z,99192.67
2018-03-28T15:51:05.312Z,99294.16
2018-03-28T15:52:43.879Z,99425.48
2018-03-28T15:54:21.711Z,99459.30
2018-03-28T15:55:58.720Z,99566.64
2018-03-28T15:57:36.368Z,99652.90
2018-03-28T15:59:13.487Z,99665.69
2018-03-28T16:00:51.064Z,99656.85
2018-03-28T16:02:28.694Z,99753.28
2018-03-28T16:04:05.608Z,99792.48
2018-03-28T16:05:42.729Z,99858.61
2018-03-28T16:07:19.641Z,99920.75
2018-03-28T16:08:59.366Z,99939.70
2018-03-28T16:10:36.855Z,99884.56
2018-03-28T16:12:14.662Z,99865.69
2018-03-28T16:13:51.777Z,99696.48
2018-03-28T16:15:32.115Z,99698.55
2018-03-28T16:17:09.082Z,99584.33
2018-03-28T16:18:46.220Z,99612.00
2018-03-28T16:20:24.260Z,99642.41
2018-03-28T16:22:01.780Z,99679.84
2018-03-28T16:23:39.665Z,99739.28
2018-03-28T16:25:16.806Z,99840.16
2018-03-28T16:26:54.031Z,99926.08
2018-03-28T16:28:33.105Z,99908.89
2018-03-28T16:30:10.852Z,99924.75
2018-03-28T16:33:27.579Z,99849.45
2018-03-28T16:35:04.827Z,99850.34
2018-03-28T16:36:43.648Z,99880.69
2018-03-28T16:38:21.574Z,99905.38
2018-03-28T16:39:58.912Z,99972.83
2018-03-28T16:41:38.140Z,99931.42
2018-03-28T16:43:17.234Z,99915.09
2018-03-28T16:44:55.278Z,99591.75
2018-03-28T16:46:33.383Z,99468.67
2018-03-28T16:48:11.976Z,99596.20
2018-03-28T16:49:50.862Z,99736.19
2018-03-28T16:51:28.179Z,99799.66
2018-03-28T16:53:05.454Z,99737.53
2018-03-28T16:54:43.294Z,99681.20
2018-03-28T16:56:20.660Z,99625.28
2018-03-28T16:58:01.275Z,99575.09
2018-03-28T16:59:38.585Z,99561.48
2018-03-28T17:01:20.326Z,99484.07
2018-03-28T17:02:57.613Z,99599.27
2018-03-28T17:04:34.921Z,99678.99
2018-03-28T17:06:12.752Z,99536.42
2018-03-28T17:07:50.013Z,99648.19
2018-03-28T17:09:27.344Z,99786.88
2018-03-28T17:11:04.454Z,99784.66
2018-03-28T17:12:45.744Z,99922.16
2018-03-28T17:14:23.054Z,99953.03
2018-03-28T17:16:00.927Z,100014.70
2018-03-28T17:17:38.885Z,100009.02
2018-03-28T17:19:17.486Z,99896.16
2018-03-28T17:20:54.931Z,99908.52
2018-03-28T17:22:33.064Z,99935.40
2018-03-28T17:24:10.283Z,99961.87
2018-03-28T17:25:48.973Z,99946.44
2018-03-28T17:27:26.423Z,99910.27
2018-03-28T17:29:03.862Z,99926.65
2018-03-28T17:30:42.535Z,99915.59
2018-03-28T17:32:21.571Z,100000.20
2018-03-28T17:33:59.176Z,100058.05
2018-03-28T17:35:37.311Z,100037.74
2018-03-28T17:37:14.782Z,100062.45
2018-03-28T17:38:52.590Z,100089.79
2018-03-28T17:42:15.869Z,100103.05
2018-03-28T17:43:52.957Z,100106.59
2018-03-28T17:45:31.098Z,100065.13
2018-03-28T17:47:09.353Z,100028.92
2018-03-28T17:48:46.835Z,99982.61
2018-03-28T17:50:24.078Z,99984.39
2018-03-28T17:52:01.832Z,99998.95
2018-03-28T17:53:42.311Z,99990.98
2018-03-28T17:55:20.375Z,99967.63
2018-03-28T17:56:58.663Z,99953.11
2018-03-28T17:58:36.254Z,99997.17
2018-03-28T18:00:14.446Z,99992.30
2018-03-28T18:01:52.057Z,100037.33
2018-03-28T18:03:28.973Z,100050.59
2018-03-28T18:05:07.349Z,100054.51
2018-03-28T18:06:44.472Z,100062.44
2018-03-28T18:08:22.212Z,100114.12
2018-03-28T18:09:59.254Z,100141.95
2018-03-28T18:11:36.496Z,99971.20
2018-03-28T18:13:13.715Z,99904.60
2018-03-28T18:14:51.697Z,99743.32
2018-03-28T18:16:29.173Z,99711.63
2018-03-28T18:18:06.809Z,99743.81
2018-03-28T18:19:44.766Z,99725.70
2018-03-28T18:21:22.902Z,99770.18
2018-03-28T18:22:59.965Z,99702.02
2018-03-28T18:24:37.642Z,99738.08
2018-03-28T18:26:14.773Z,99800.20
2018-03-28T18:27:51.730Z,99777.69
2018-03-28T18:29:29.172Z,99716.95
2018-03-28T18:31:06.668Z,99707.27
2018-03-28T18:32:43.923Z,99757.44
2018-03-28T18:34:21.348Z,99684.78
2018-03-28T18:35:59.418Z,99566.40
2018-03-28T18:37:37.750Z,99500.86
2018-03-28T18:39:15.601Z,99501.31
2018-03-28T18:40:53.488Z,99508.77
2018-03-28T18:42:30.578Z,99426.98
2018-03-28T18:44:08.385Z,99303.55
2018-03-28T18:45:45.713Z,99140.25
2018-03-28T18:47:23.076Z,98905.17
2018-03-28T18:49:01.079Z,98777.30
2018-03-28T18:50:39.475Z,98675.30
2018-03-28T18:52:21.203Z,98625.04
2018-03-28T18:53:58.722Z,98538.88
2018-03-28T18:55:36.848Z,98491.66
2018-03-28T18:57:17.929Z,98446.23
2018-03-28T18:58:59.252Z,98431.39
2018-03-28T19:00:39.176Z,98456.25
2018-03-28T19:02:18.663Z,98517.05
2018-03-28T19:03:57.042Z,98606.67
2018-03-28T19:05:34.362Z,98569.08
2018-03-28T19:07:13.289Z,98538.88
2018-03-28T19:08:53.890Z,98517.46
2018-03-28T19:10:34.518Z,98503.45
2018-03-28T19:12:13.977Z,98503.91
2018-03-28T19:13:51.288Z,98513.92
2018-03-28T19:15:32.435Z,98520.45
2018-03-28T19:17:09.865Z,98534.02
2018-03-28T19:18:48.606Z,98504.34